FIMP/MRU METAR and TAF weather

Enter ICAO airport designator
Station Type Date Time Source
FIMP METAR 2024/06/16 00:00 UTC NOAA

FIMP 160000Z 00000KT 9999 FEW017 BKN050 23/21 Q1016


Station Type Date Time Source
FIMP Decoded METAR 2024/06/16 00:00 UTC NOAA

Plaisance Mauritius , Mauritius (FIMP) 20-26S 057-40E 57M
Jun 15, 2024 - 08:00 PM EDT / 2024.06.16 0000 UTC
Wind: Calm:0
Visibility: greater than 7 mile(s):0
Sky conditions: mostly cloudy
Temperature: 73 F (23 C)
Dew Point: 69 F (21 C)
Relative Humidity: 88%
Pressure (altimeter): 30.00 in. Hg (1016 hPa)
ob: FIMP 160000Z 00000KT 9999 FEW017 BKN050 23/21 Q1016
cycle: 0

Station Type Date Time Source
FIMP TAF 2024/06/15 18:15 UTC NOAA